Time;durP1;ratioP1;P1;durP2;ratioP2;P2;SDS_P1;SDS_P2;PMS_P1;PMS_P2;Temp;Humidity;BMP_temperature;BMP_pressure;BME280_temperature;BME280_humidity;BME280_pressure;Samples;Min_cycle;Max_cycle;Signal;HPM_P1;HPM_P2
2024/01/07 00:01:12;;;;;;;18.60;15.07;;;;;;;6.57;97.20;91295.16;5051329;28;20181;-75
2024/01/07 00:03:40;;;;;;;16.20;14.10;;;;;;;6.81;97.16;91316.53;5047550;28;20253;-74
2024/01/07 00:06:06;;;;;;;15.53;14.03;;;;;;;6.86;96.49;91305.28;5052875;28;20213;-74
2024/01/07 00:08:31;;;;;;;18.77;15.03;;;;;;;6.91;96.19;91315.56;5042601;28;20219;-74
2024/01/07 00:10:56;;;;;;;15.60;14.10;;;;;;;6.86;95.92;91295.69;5047021;28;20186;-71
2024/01/07 00:13:22;;;;;;;15.97;14.33;;;;;;;6.74;95.99;91305.75;5050572;28;20214;-71
2024/01/07 00:15:47;;;;;;;16.70;14.80;;;;;;;6.82;96.27;91297.31;5040959;28;20201;-71
2024/01/07 00:18:13;;;;;;;19.97;14.73;;;;;;;6.67;96.44;91287.22;5065132;28;20232;-71
2024/01/07 00:20:38;;;;;;;15.93;14.40;;;;;;;6.73;96.91;91287.88;5069878;28;20260;-71
2024/01/07 00:23:03;;;;;;;15.63;14.10;;;;;;;6.61;98.22;91282.41;5065542;28;20316;-71
2024/01/07 00:25:29;;;;;;;14.57;13.37;;;;;;;6.74;99.63;91273.88;5065203;28;20165;-72
2024/01/07 00:27:55;;;;;;;13.73;12.67;;;;;;;6.76;100.00;91262.16;5056945;28;20226;-71
2024/01/07 00:30:20;;;;;;;12.87;11.87;;;;;;;7.15;100.00;91259.06;5049896;28;20188;-71
2024/01/07 00:32:46;;;;;;;15.33;13.67;;;;;;;7.25;100.00;91254.44;5049377;28;20226;-70
2024/01/07 00:35:11;;;;;;;13.57;12.23;;;;;;;7.36;100.00;91240.19;5041158;28;20218;-71
2024/01/07 00:37:37;;;;;;;12.30;11.20;;;;;;;7.57;100.00;91243.88;5043816;28;20218;-71
2024/01/07 00:40:03;;;;;;;13.30;12.17;;;;;;;7.40;100.00;91245.56;5048918;28;20182;-71
2024/01/07 00:42:29;;;;;;;14.00;12.80;;;;;;;7.49;100.00;91236.78;5045632;28;20218;-71
2024/01/07 00:44:54;;;;;;;14.30;13.07;;;;;;;7.45;99.20;91227.28;5051209;28;20189;-71
2024/01/07 00:47:20;;;;;;;15.13;13.83;;;;;;;7.67;98.87;91246.25;5038484;28;20253;-71
2024/01/07 00:49:45;;;;;;;14.57;13.47;;;;;;;7.78;98.43;91223.44;5048757;28;20190;-71
2024/01/07 00:52:10;;;;;;;13.93;12.87;;;;;;;7.87;99.03;91224.25;5057095;28;20233;-71
2024/01/07 00:54:36;;;;;;;14.13;12.83;;;;;;;7.80;99.63;91213.50;5071845;28;20197;-71
2024/01/07 00:57:01;;;;;;;14.17;12.93;;;;;;;7.92;99.11;91198.16;5058298;28;20229;-71
2024/01/07 00:59:29;;;;;;;14.53;13.33;;;;;;;8.02;99.05;91211.66;5051753;28;20198;-72
2024/01/07 01:01:55;;;;;;;13.00;11.93;;;;;;;8.13;98.96;91212.97;5042370;28;20272;-71
2024/01/07 01:04:20;;;;;;;14.47;13.07;;;;;;;8.21;99.04;91195.88;5061623;28;20241;-71
2024/01/07 01:06:46;;;;;;;12.27;11.17;;;;;;;8.47;97.95;91209.03;5053743;28;20222;-71
2024/01/07 01:09:11;;;;;;;13.20;12.20;;;;;;;8.62;96.83;91208.63;5038537;28;20236;-70
2024/01/07 01:11:36;;;;;;;12.90;11.77;;;;;;;8.73;97.17;91204.69;5049412;28;20864;-72
2024/01/07 01:14:02;;;;;;;12.90;11.80;;;;;;;8.68;97.29;91203.00;5051529;28;20188;-71
2024/01/07 01:16:27;;;;;;;13.57;12.30;;;;;;;8.77;96.96;91179.59;5043222;28;20544;-71
2024/01/07 01:18:52;;;;;;;13.87;12.77;;;;;;;8.94;96.36;91184.84;5042685;28;20191;-71
2024/01/07 01:21:17;;;;;;;13.57;12.57;;;;;;;8.96;95.97;91173.09;5050389;28;20257;-71
2024/01/07 01:23:44;;;;;;;13.73;12.43;;;;;;;8.84;96.62;91169.53;5062238;28;20235;-71
2024/01/07 01:26:09;;;;;;;13.40;12.40;;;;;;;8.74;97.31;91156.81;5064125;28;20925;-71
2024/01/07 01:28:34;;;;;;;12.20;11.00;;;;;;;8.80;97.30;91150.38;5063470;28;20234;-71
2024/01/07 01:31:00;;;;;;;12.67;11.67;;;;;;;8.95;96.65;91140.31;5065782;28;20182;-72
2024/01/07 01:33:25;;;;;;;13.67;12.37;;;;;;;9.00;96.15;91136.78;5064650;28;20213;-71
2024/01/07 01:35:50;;;;;;;12.63;11.50;;;;;;;9.08;96.23;91133.44;5068058;28;20189;-71
2024/01/07 01:38:16;;;;;;;13.77;12.67;;;;;;;8.96;96.07;91125.47;5063337;28;20255;-71
2024/01/07 01:40:42;;;;;;;15.00;13.50;;;;;;;9.00;96.18;91123.78;5058063;28;20219;-71
2024/01/07 01:43:07;;;;;;;14.10;12.97;;;;;;;8.95;96.40;91123.94;5063929;28;21053;-71
2024/01/07 01:45:33;;;;;;;13.20;12.20;;;;;;;8.94;96.54;91112.78;5069623;28;20194;-71
2024/01/07 01:47:59;;;;;;;13.87;12.70;;;;;;;8.93;97.00;91115.69;5070931;28;20233;-70
2024/01/07 01:50:24;;;;;;;12.63;11.67;;;;;;;8.89;97.28;91099.91;5069302;28;20201;-71
2024/01/07 01:52:50;;;;;;;13.17;12.10;;;;;;;8.76;97.58;91087.03;5067268;28;20228;-71
2024/01/07 01:55:16;;;;;;;13.77;12.60;;;;;;;8.86;97.67;91094.53;5067404;28;20201;-71
2024/01/07 01:57:44;;;;;;;13.07;11.87;;;;;;;8.88;98.02;91087.97;5069390;28;20233;-71
2024/01/07 02:00:10;;;;;;;12.83;11.83;;;;;;;8.91;97.80;91070.97;5070000;28;20173;-72
2024/01/07 02:02:35;;;;;;;11.07;10.20;;;;;;;8.83;98.56;91093.31;5067882;28;20245;-71
2024/01/07 02:05:02;;;;;;;11.23;10.37;;;;;;;8.75;98.87;91088.84;5066846;28;20181;-71
2024/01/07 02:07:29;;;;;;;10.80;10.03;;;;;;;8.82;98.47;91083.22;5069576;28;20231;-71
2024/01/07 02:09:55;;;;;;;12.13;10.77;;;;;;;8.82;98.78;91096.22;5068949;28;20184;-72
2024/01/07 02:12:20;;;;;;;10.50;9.93;;;;;;;9.01;98.85;91086.28;5069639;28;20229;-71
2024/01/07 02:14:45;;;;;;;10.47;9.83;;;;;;;9.19;97.61;91087.81;5066813;28;20181;-71
2024/01/07 02:17:11;;;;;;;10.43;9.83;;;;;;;9.24;97.34;91074.66;5062175;28;20220;-71
2024/01/07 02:19:36;;;;;;;11.13;10.53;;;;;;;9.39;96.78;91076.78;5069311;28;20245;-71
2024/01/07 02:22:01;;;;;;;10.97;10.43;;;;;;;9.44;96.85;91055.78;5058366;28;20272;-71
2024/01/07 02:24:28;;;;;;;10.73;10.00;;;;;;;9.68;96.22;91027.41;5037597;28;20225;-71
2024/01/07 02:26:53;;;;;;;11.63;10.93;;;;;;;9.84;95.32;91015.38;5047175;28;20221;-72
2024/01/07 02:29:18;;;;;;;11.03;10.33;;;;;;;9.89;94.88;91012.59;5045122;28;20194;-71
2024/01/07 02:31:44;;;;;;;11.40;10.67;;;;;;;9.88;95.14;90999.88;5049474;28;20244;-71
2024/01/07 02:34:10;;;;;;;10.53;9.90;;;;;;;9.91;94.58;90996.66;5046409;28;20182;-71
2024/01/07 02:36:35;;;;;;;10.33;9.73;;;;;;;9.72;94.86;90984.00;5036743;28;20221;-72
2024/01/07 02:39:01;;;;;;;11.97;11.27;;;;;;;9.77;95.05;90992.41;5046442;28;20191;-71
2024/01/07 02:41:26;;;;;;;11.40;10.70;;;;;;;9.71;95.78;91001.47;5035195;28;20191;-71
2024/01/07 02:43:52;;;;;;;11.00;10.30;;;;;;;9.74;96.08;91002.72;5042794;28;20193;-72
2024/01/07 02:46:17;;;;;;;11.43;10.60;;;;;;;9.66;96.23;91000.88;5049107;28;20185;-72
2024/01/07 02:48:43;;;;;;;10.60;9.93;;;;;;;9.70;96.21;91007.00;5057295;28;20224;-71
2024/01/07 02:51:08;;;;;;;11.97;11.23;;;;;;;9.82;94.84;91001.91;5069312;28;20781;-71
2024/01/07 02:53:34;;;;;;;11.83;10.93;;;;;;;9.93;93.88;90997.84;5057139;28;20245;-72
2024/01/07 02:55:59;;;;;;;10.93;10.13;;;;;;;10.06;93.53;90999.50;5068382;28;20206;-72
2024/01/07 02:58:25;;;;;;;10.50;9.80;;;;;;;10.02;93.10;91014.25;5062815;28;20316;-72
2024/01/07 03:00:50;;;;;;;10.37;9.80;;;;;;;9.94;93.93;91009.06;5060744;28;20192;-71
2024/01/07 03:03:15;;;;;;;10.23;9.63;;;;;;;10.13;93.30;91019.91;5044843;28;20210;-70
2024/01/07 03:05:41;;;;;;;10.93;10.07;;;;;;;10.14;92.89;91011.00;5046231;28;20247;-71
2024/01/07 03:08:07;;;;;;;11.07;10.37;;;;;;;10.14;93.57;91026.63;5048337;28;20226;-70
2024/01/07 03:10:32;;;;;;;10.93;10.23;;;;;;;10.04;94.41;91035.53;5048998;28;20269;-71
2024/01/07 03:12:58;;;;;;;9.63;9.03;;;;;;;10.03;95.58;91012.38;5048515;28;20206;-71
2024/01/07 03:15:23;;;;;;;10.53;9.87;;;;;;;10.27;95.89;91026.44;5041540;28;20205;-71
2024/01/07 03:17:48;;;;;;;11.07;10.30;;;;;;;10.11;96.64;91017.59;5045413;28;20221;-71
2024/01/07 03:20:14;;;;;;;9.57;8.97;;;;;;;10.21;98.02;91042.56;5041099;28;20224;-71
2024/01/07 03:22:39;;;;;;;10.40;9.90;;;;;;;10.01;100.00;91043.97;5044641;28;20230;-71
2024/01/07 03:25:05;;;;;;;10.60;9.93;;;;;;;10.09;100.00;91037.22;5062631;28;20296;-71
2024/01/07 03:27:31;;;;;;;11.13;10.43;;;;;;;10.16;100.00;91043.50;5057487;28;20230;-71
2024/01/07 03:29:56;;;;;;;11.07;10.20;;;;;;;10.10;100.00;91036.91;5064052;28;20253;-71
2024/01/07 03:32:21;;;;;;;12.13;11.23;;;;;;;9.98;100.00;91025.63;5069699;28;20224;-71
2024/01/07 03:34:47;;;;;;;11.73;10.93;;;;;;;9.48;100.00;91017.63;5080941;28;20205;-71
2024/01/07 03:37:12;;;;;;;10.23;9.33;;;;;;;9.43;100.00;91025.63;5059708;28;20253;-71
2024/01/07 03:39:37;;;;;;;11.40;10.60;;;;;;;9.24;100.00;91023.34;5065727;28;20186;-71
2024/01/07 03:42:03;;;;;;;11.63;10.83;;;;;;;8.97;100.00;91025.50;5080444;28;20221;-71
2024/01/07 03:44:28;;;;;;;13.63;12.33;;;;;;;8.78;100.00;91012.81;5065539;28;20248;-71
2024/01/07 03:46:54;;;;;;;13.83;12.80;;;;;;;8.95;100.00;91012.78;5063235;28;20850;-71
2024/01/07 03:49:19;;;;;;;13.13;12.03;;;;;;;9.06;100.00;91019.22;5069835;28;20201;-71
2024/01/07 03:51:44;;;;;;;13.87;12.77;;;;;;;8.83;100.00;91010.06;5067814;28;20236;-71
2024/01/07 03:54:10;;;;;;;12.93;12.03;;;;;;;8.87;100.00;91008.34;5068433;28;20190;-72
2024/01/07 03:56:35;;;;;;;14.87;13.47;;;;;;;9.10;100.00;91011.56;5060766;28;20217;-73
2024/01/07 03:59:00;;;;;;;16.60;13.67;;;;;;;9.12;100.00;90994.56;5058997;28;20205;-73
2024/01/07 04:01:26;;;;;;;14.60;13.20;;;;;;;9.11;100.00;90987.06;5068350;28;20196;-75
2024/01/07 04:03:51;;;;;;;15.23;13.97;;;;;;;8.99;100.00;90994.75;5059166;28;20179;-75
2024/01/07 04:06:16;;;;;;;14.00;12.90;;;;;;;8.53;100.00;90971.94;5062953;28;20209;-75
2024/01/07 04:08:42;;;;;;;14.20;12.77;;;;;;;8.72;100.00;91003.63;5061087;28;20260;-74
2024/01/07 04:11:07;;;;;;;14.20;13.17;;;;;;;8.96;100.00;91005.75;5064139;28;20194;-75
2024/01/07 04:13:32;;;;;;;14.20;13.07;;;;;;;8.88;100.00;91012.50;5066222;28;20217;-74
2024/01/07 04:15:58;;;;;;;15.13;13.77;;;;;;;8.44;100.00;90988.59;5066547;28;20190;-75
2024/01/07 04:18:23;;;;;;;15.03;13.53;;;;;;;8.37;100.00;90990.91;5070445;28;20217;-75
2024/01/07 04:20:48;;;;;;;15.47;13.97;;;;;;;8.77;100.00;90992.28;5071899;28;20251;-75
2024/01/07 04:23:14;;;;;;;15.73;14.23;;;;;;;8.79;100.00;90990.94;5062674;28;20222;-75
2024/01/07 04:25:40;;;;;;;14.90;13.53;;;;;;;8.97;100.00;91008.06;5044720;28;20781;-72
2024/01/07 04:28:06;;;;;;;15.23;14.13;;;;;;;8.97;100.00;90991.66;5044495;28;20297;-73
2024/01/07 04:30:31;;;;;;;15.07;13.77;;;;;;;8.88;100.00;90975.31;5040103;28;20194;-72
2024/01/07 04:32:57;;;;;;;14.50;13.20;;;;;;;8.72;100.00;90976.84;5041453;28;20226;-72
2024/01/07 04:35:22;;;;;;;14.43;12.67;;;;;;;8.63;100.00;90981.28;5052249;28;20240;-72
2024/01/07 04:37:48;;;;;;;13.37;12.47;;;;;;;8.94;100.00;90977.44;5052105;28;20246;-72
2024/01/07 04:40:13;;;;;;;14.07;12.80;;;;;;;9.01;100.00;90971.78;5046924;28;20201;-73
2024/01/07 04:42:38;;;;;;;13.93;12.70;;;;;;;8.88;100.00;90983.09;5044321;28;20237;-72
2024/01/07 04:45:04;;;;;;;13.60;12.60;;;;;;;8.59;100.00;90969.97;5067003;28;20219;-73
2024/01/07 04:47:31;;;;;;;13.37;12.37;;;;;;;8.79;100.00;90974.56;5064490;28;20213;-71
2024/01/07 04:49:57;;;;;;;13.23;12.27;;;;;;;8.80;100.00;90965.66;5071768;28;20228;-72
2024/01/07 04:52:23;;;;;;;14.33;13.10;;;;;;;9.03;100.00;90973.00;5070375;28;20251;-71
2024/01/07 04:54:55;;;;;;;12.57;11.60;;;;;;;9.04;100.00;90977.13;5069903;28;20170;-72
2024/01/07 04:57:21;;;;;;;11.87;11.07;;;;;;;8.97;100.00;90991.66;5066943;28;20221;-72
2024/01/07 04:59:48;;;;;;;12.70;11.80;;;;;;;9.06;100.00;90987.22;5062623;28;20188;-72
2024/01/07 05:02:13;;;;;;;12.77;11.67;;;;;;;9.01;100.00;90982.19;5070881;28;20229;-72
2024/01/07 05:04:39;;;;;;;12.90;11.83;;;;;;;9.02;100.00;90978.50;5059998;28;20177;-72
2024/01/07 05:07:05;;;;;;;13.43;12.53;;;;;;;8.96;100.00;90974.53;5062929;28;20628;-72
2024/01/07 05:09:32;;;;;;;13.00;12.13;;;;;;;8.80;100.00;90955.25;5068259;28;20185;-72
2024/01/07 05:11:57;;;;;;;13.07;12.27;;;;;;;8.91;100.00;90966.88;5087434;28;20221;-73
2024/01/07 05:14:22;;;;;;;13.27;12.37;;;;;;;8.90;100.00;90973.16;5065660;28;20182;-72
2024/01/07 05:16:48;;;;;;;12.90;12.07;;;;;;;9.03;100.00;90974.81;5053819;28;20280;-73
2024/01/07 05:19:13;;;;;;;12.77;11.70;;;;;;;8.93;100.00;90956.94;5065567;28;20185;-72
2024/01/07 05:21:39;;;;;;;13.13;12.13;;;;;;;9.02;100.00;90963.66;5070513;28;20221;-72
2024/01/07 05:24:05;;;;;;;13.03;11.93;;;;;;;9.03;100.00;90959.97;5062676;28;20201;-73
2024/01/07 05:26:30;;;;;;;13.10;12.20;;;;;;;8.87;100.00;90950.38;5064496;28;20276;-73
2024/01/07 05:28:55;;;;;;;12.57;11.60;;;;;;;8.86;100.00;90954.03;5071992;28;20185;-72
2024/01/07 05:31:22;;;;;;;13.13;12.20;;;;;;;8.92;100.00;90963.97;5066727;28;20198;-72
2024/01/07 05:33:47;;;;;;;12.97;11.97;;;;;;;8.83;100.00;90955.41;5070927;28;20248;-72
2024/01/07 05:36:13;;;;;;;13.10;12.10;;;;;;;8.90;100.00;90965.38;5059242;28;20202;-72
2024/01/07 05:38:38;;;;;;;14.17;12.93;;;;;;;8.94;100.00;90968.88;5069239;28;20244;-72
2024/01/07 05:41:04;;;;;;;14.77;13.57;;;;;;;8.67;100.00;90951.00;5072343;28;20194;-73
2024/01/07 05:43:29;;;;;;;14.27;13.13;;;;;;;8.33;100.00;90925.75;5066668;28;20236;-73
2024/01/07 05:45:55;;;;;;;14.20;13.00;;;;;;;8.45;100.00;90941.50;5071120;28;20189;-72
2024/01/07 05:48:22;;;;;;;15.23;13.70;;;;;;;8.52;100.00;90954.03;5067529;28;20746;-72
2024/01/07 05:50:47;;;;;;;15.30;14.00;;;;;;;8.56;100.00;90981.72;5070686;28;20195;-72
2024/01/07 05:53:13;;;;;;;15.27;13.97;;;;;;;8.54;100.00;90999.50;5052424;28;20242;-72
2024/01/07 05:55:38;;;;;;;14.47;13.07;;;;;;;8.67;100.00;90998.56;5050792;28;20174;-72
2024/01/07 05:58:03;;;;;;;17.73;16.13;;;;;;;8.76;100.00;90969.97;5038489;28;20222;-72
2024/01/07 06:00:29;;;;;;;18.60;16.23;;;;;;;8.73;100.00;90955.72;5039179;28;20262;-72
2024/01/07 06:02:54;;;;;;;19.07;16.90;;;;;;;8.33;100.00;90943.94;5049183;28;20225;-72
2024/01/07 06:05:19;;;;;;;16.73;15.23;;;;;;;8.51;100.00;90968.13;5042600;28;20246;-72
2024/01/07 06:07:45;;;;;;;15.30;13.90;;;;;;;8.67;100.00;90951.00;5048160;28;20336;-73
2024/01/07 06:10:10;;;;;;;18.07;14.00;;;;;;;8.54;100.00;90918.88;5045427;28;20174;-73
2024/01/07 06:12:35;;;;;;;15.73;14.33;;;;;;;8.70;100.00;90955.59;5056973;28;20812;-73
2024/01/07 06:15:01;;;;;;;16.43;14.83;;;;;;;8.52;100.00;90951.44;5061540;28;20257;-71
2024/01/07 06:17:26;;;;;;;15.90;14.50;;;;;;;8.53;100.00;90955.59;5063170;28;20217;-72
2024/01/07 06:19:51;;;;;;;14.63;13.33;;;;;;;8.12;100.00;90945.59;5072279;28;20187;-74
2024/01/07 06:22:16;;;;;;;15.67;14.33;;;;;;;8.37;100.00;90962.31;5041885;28;20222;-76
2024/01/07 06:24:42;;;;;;;15.10;13.90;;;;;;;8.59;100.00;90975.91;5040684;28;20735;-72
2024/01/07 06:27:07;;;;;;;15.00;13.57;;;;;;;8.72;100.00;90954.19;5054832;28;20232;-73
2024/01/07 06:29:33;;;;;;;15.20;14.00;;;;;;;8.83;100.00;90952.81;5065374;28;20170;-72
2024/01/07 06:31:59;;;;;;;15.47;14.03;;;;;;;8.60;100.00;90969.66;5084178;28;20225;-73
2024/01/07 06:34:24;;;;;;;17.53;15.73;;;;;;;8.62;100.00;90969.34;5068896;28;20173;-73
2024/01/07 06:36:49;;;;;;;16.17;14.53;;;;;;;8.72;100.00;90962.00;5065547;28;20713;-72
2024/01/07 06:39:15;;;;;;;17.10;15.60;;;;;;;8.63;100.00;90989.06;5068713;28;20237;-72
2024/01/07 06:41:40;;;;;;;16.43;15.13;;;;;;;8.60;100.00;90987.09;5066828;28;20217;-72
2024/01/07 06:44:05;;;;;;;15.43;14.17;;;;;;;8.86;100.00;90980.03;5065596;28;20189;-73
2024/01/07 06:46:31;;;;;;;17.13;15.57;;;;;;;8.76;100.00;90998.56;5061273;28;20189;-73
2024/01/07 06:48:56;;;;;;;16.83;15.43;;;;;;;8.83;100.00;91002.25;5060876;28;20192;-73
2024/01/07 06:51:22;;;;;;;19.60;17.13;;;;;;;8.86;100.00;90995.66;5096878;28;20196;-72
2024/01/07 06:53:47;;;;;;;18.60;16.73;;;;;;;8.97;100.00;90991.66;5079711;28;20213;-72
2024/01/07 06:56:13;;;;;;;18.60;15.57;;;;;;;9.03;100.00;90991.22;5071930;28;20269;-73
2024/01/07 06:58:38;;;;;;;17.73;16.23;;;;;;;9.12;100.00;90999.03;5044692;28;20321;-73
2024/01/07 07:01:06;;;;;;;16.33;15.03;;;;;;;9.18;100.00;91003.00;5047750;28;20201;-72
2024/01/07 07:03:32;;;;;;;16.97;15.10;;;;;;;9.38;100.00;90997.13;5036311;28;20260;-73
2024/01/07 07:05:57;;;;;;;16.23;14.67;;;;;;;9.41;100.00;90989.47;5042340;28;20194;-72
2024/01/07 07:08:22;;;;;;;17.00;15.40;;;;;;;9.40;100.00;90995.00;5043431;28;20297;-72
2024/01/07 07:10:48;;;;;;;18.33;16.53;;;;;;;9.55;100.00;90991.88;5047519;28;20254;-72
2024/01/07 07:13:14;;;;;;;19.47;17.10;;;;;;;9.73;100.00;90993.34;5051323;28;20226;-72
2024/01/07 07:15:40;;;;;;;16.23;14.57;;;;;;;9.82;100.00;90962.81;5065766;28;20212;-71
2024/01/07 07:18:05;;;;;;;19.20;17.40;;;;;;;9.17;100.00;90946.78;5069216;28;20228;-72
2024/01/07 07:20:30;;;;;;;19.57;17.87;;;;;;;9.43;100.00;90984.69;5065812;28;20224;-70
2024/01/07 07:22:56;;;;;;;19.23;17.33;;;;;;;9.70;100.00;90996.56;5067573;28;20313;-70
2024/01/07 07:25:21;;;;;;;16.93;15.33;;;;;;;9.83;100.00;90982.59;5068177;28;20181;-70
2024/01/07 07:27:46;;;;;;;14.23;13.30;;;;;;;10.02;100.00;90980.38;5044405;28;20251;-70
2024/01/07 07:30:12;;;;;;;14.83;13.53;;;;;;;9.98;100.00;90981.31;5048472;28;20266;-69
2024/01/07 07:32:41;;;;;;;15.63;14.23;;;;;;;10.00;100.00;91002.59;5048606;28;20222;-74
2024/01/07 07:35:07;;;;;;;15.00;13.80;;;;;;;10.17;100.00;90992.09;5046360;28;20225;-75
2024/01/07 07:37:33;;;;;;;14.43;13.33;;;;;;;10.23;100.00;90967.38;5058061;28;20217;-73
2024/01/07 07:39:58;;;;;;;13.33;12.43;;;;;;;10.12;100.00;90964.38;5067149;28;20186;-73
2024/01/07 07:42:23;;;;;;;15.53;14.23;;;;;;;9.09;100.00;90971.75;5057920;28;20214;-72
2024/01/07 07:44:49;;;;;;;16.23;14.60;;;;;;;9.84;100.00;90972.94;5067253;28;20538;-74
2024/01/07 07:47:14;;;;;;;16.60;15.10;;;;;;;10.09;100.00;90959.78;5057087;28;20712;-73
2024/01/07 07:49:40;;;;;;;16.13;14.87;;;;;;;9.15;100.00;90960.09;5053194;28;20241;-76
2024/01/07 07:52:09;;;;;;;14.60;13.20;;;;;;;8.96;100.00;90956.31;5046266;28;20229;-80
2024/01/07 07:54:37;;;;;;;17.03;15.37;;;;;;;9.66;100.00;90961.81;5041437;28;20193;-80
2024/01/07 07:57:02;;;;;;;15.50;14.33;;;;;;;9.97;100.00;90967.50;5075762;28;20226;-74
2024/01/07 07:59:28;;;;;;;15.27;14.03;;;;;;;9.34;100.00;90949.34;5050449;28;20194;-79
2024/01/07 08:01:53;;;;;;;14.93;13.73;;;;;;;9.25;100.00;90959.00;5051260;28;20222;-78
2024/01/07 08:04:19;;;;;;;14.70;13.40;;;;;;;9.65;100.00;90981.09;5050971;28;20178;-79
2024/01/07 08:06:45;;;;;;;14.70;13.13;;;;;;;9.93;100.00;90990.03;5048934;28;20218;-79
2024/01/07 08:09:10;;;;;;;14.93;13.83;;;;;;;10.14;100.00;90984.91;5050622;28;20189;-78
2024/01/07 08:11:36;;;;;;;14.13;13.23;;;;;;;9.82;100.00;90974.00;5050716;28;20484;-78
2024/01/07 08:14:01;;;;;;;13.60;12.40;;;;;;;10.03;100.00;90962.84;5051694;28;20217;-79
2024/01/07 08:16:27;;;;;;;12.90;12.03;;;;;;;10.26;99.61;90972.72;5042649;28;20256;-79
2024/01/07 08:18:52;;;;;;;12.23;11.43;;;;;;;10.35;99.11;90989.09;5064547;28;20217;-83
2024/01/07 08:21:18;;;;;;;13.00;12.00;;;;;;;10.13;99.58;90965.16;5065027;28;20241;-77
2024/01/07 08:23:43;;;;;;;20.10;12.17;;;;;;;10.35;96.99;90965.63;5050487;28;20230;-77
2024/01/07 08:26:08;;;;;;;13.93;12.63;;;;;;;10.33;98.93;90973.00;5045888;28;20179;-79
2024/01/07 08:28:34;;;;;;;12.23;11.30;;;;;;;10.53;98.82;90980.09;5047532;28;20324;-78
2024/01/07 08:30:59;;;;;;;18.17;16.27;;;;;;;10.74;96.88;90983.47;5050665;28;20202;-77
2024/01/07 08:33:25;;;;;;;14.90;13.53;;;;;;;10.48;95.69;90950.81;5048555;28;20230;-77
2024/01/07 08:35:50;;;;;;;16.17;14.80;;;;;;;10.56;96.55;90984.69;5040560;28;20946;-80
2024/01/07 08:38:15;;;;;;;14.27;12.97;;;;;;;10.36;97.21;90995.09;5049393;28;20838;-77
2024/01/07 08:40:41;;;;;;;14.10;12.97;;;;;;;10.56;95.43;90973.47;5051018;28;20186;-77
2024/01/07 08:43:06;;;;;;;12.57;11.67;;;;;;;9.92;97.44;90946.81;5049819;28;20281;-78
2024/01/07 08:45:31;;;;;;;14.97;13.70;;;;;;;10.41;96.05;90981.84;5051150;28;20195;-79
2024/01/07 08:47:57;;;;;;;15.30;14.03;;;;;;;10.50;97.02;90970.28;5048050;28;20244;-80
2024/01/07 08:50:22;;;;;;;14.87;13.60;;;;;;;10.82;97.37;90974.81;5049834;28;20178;-77
2024/01/07 08:52:47;;;;;;;15.33;14.03;;;;;;;11.11;96.64;90979.94;5057447;28;20210;-80
2024/01/07 08:55:13;;;;;;;17.93;13.80;;;;;;;11.02;94.04;90979.25;5065581;28;20209;-80
2024/01/07 08:57:38;;;;;;;13.67;12.67;;;;;;;10.83;98.10;90980.81;5072714;28;20249;-76
2024/01/07 09:00:07;;;;;;;13.93;12.67;;;;;;;10.48;98.24;90940.38;5069828;28;20193;-79
2024/01/07 09:02:32;;;;;;;14.90;13.73;;;;;;;10.85;97.42;90966.34;5066487;28;20224;-79
2024/01/07 09:04:58;;;;;;;16.00;14.60;;;;;;;10.06;100.00;90960.41;5070280;28;20244;-80
2024/01/07 09:07:23;;;;;;;17.27;15.20;;;;;;;10.62;100.00;90962.53;5069790;28;20226;-78
2024/01/07 09:09:48;;;;;;;15.63;14.43;;;;;;;10.94;99.69;90968.88;5070143;28;20197;-80
2024/01/07 09:12:14;;;;;;;17.60;15.83;;;;;;;10.42;100.00;90968.50;5056290;28;20294;-80
2024/01/07 09:14:40;;;;;;;16.90;15.53;;;;;;;10.84;100.00;90980.47;5043717;28;20190;-80
2024/01/07 09:17:05;;;;;;;17.17;15.67;;;;;;;10.31;100.00;90977.78;5046179;28;20229;-77
2024/01/07 09:19:31;;;;;;;16.23;14.77;;;;;;;10.95;100.00;90986.84;5049252;28;20177;-77
2024/01/07 09:21:56;;;;;;;17.10;15.80;;;;;;;11.32;100.00;90988.50;5042524;28;20245;-77
2024/01/07 09:24:21;;;;;;;17.40;15.93;;;;;;;11.34;100.00;90978.50;5063478;28;20181;-79
2024/01/07 09:26:47;;;;;;;18.97;16.87;;;;;;;11.48;100.00;90967.00;5065387;28;20244;-80
2024/01/07 09:29:13;;;;;;;21.10;17.33;;;;;;;11.34;100.00;90969.91;5062695;28;20242;-78
2024/01/07 09:31:39;;;;;;;20.53;18.43;;;;;;;10.45;100.00;90986.13;5069132;28;20224;-78
2024/01/07 09:34:06;;;;;;;21.43;18.10;;;;;;;9.65;100.00;90971.47;5069990;28;20173;-78
2024/01/07 09:36:32;;;;;;;20.43;18.50;;;;;;;10.42;100.00;90968.50;5057502;28;20236;-78
2024/01/07 09:38:57;;;;;;;20.60;18.53;;;;;;;10.23;100.00;90962.16;5058548;28;20194;-78
2024/01/07 09:41:22;;;;;;;20.27;18.43;;;;;;;10.80;100.00;90971.75;5068125;28;20209;-79
2024/01/07 09:43:48;;;;;;;20.77;18.67;;;;;;;10.64;100.00;90970.81;5078887;28;20243;-78
2024/01/07 09:46:14;;;;;;;18.83;16.77;;;;;;;10.57;100.00;90965.31;5062347;28;20202;-75
2024/01/07 09:48:39;;;;;;;23.90;19.67;;;;;;;10.74;100.00;90974.88;5067669;28;20217;-76
2024/01/07 09:51:09;;;;;;;21.57;19.47;;;;;;;11.05;100.00;90981.22;5060963;28;20197;-79
2024/01/07 09:53:38;;;;;;;23.33;20.90;;;;;;;11.08;100.00;90938.78;5075107;28;20240;-78
2024/01/07 09:56:17;;;;;;;20.63;18.77;;;;;;;11.54;100.00;90963.06;5068539;28;20212;-78
2024/01/07 09:58:43;;;;;;;22.40;20.10;;;;;;;11.31;100.00;90955.63;5060250;28;20237;-80
2024/01/07 10:01:08;;;;;;;22.83;20.53;;;;;;;10.54;100.00;90945.09;5061179;28;20213;-79
2024/01/07 10:03:34;;;;;;;24.60;22.17;;;;;;;10.78;100.00;90966.09;5065364;28;20222;-79
2024/01/07 10:05:59;;;;;;;23.43;20.97;;;;;;;11.03;100.00;90970.34;5063621;28;20201;-77
2024/01/07 10:08:25;;;;;;;24.23;21.67;;;;;;;10.84;100.00;90943.94;5067985;28;20786;-77
2024/01/07 10:10:50;;;;;;;22.93;20.70;;;;;;;10.77;100.00;90948.16;5062789;28;20181;-76
2024/01/07 10:13:15;;;;;;;22.67;20.50;;;;;;;10.19;100.00;90912.50;5067560;28;20225;-77
2024/01/07 10:15:41;;;;;;;25.00;22.40;;;;;;;10.32;100.00;90940.16;5067962;28;20189;-77
2024/01/07 10:18:07;;;;;;;21.97;19.77;;;;;;;10.16;100.00;90931.41;5055449;28;20257;-77
2024/01/07 10:20:34;;;;;;;20.53;18.33;;;;;;;10.74;100.00;90930.53;5059293;28;20217;-78
2024/01/07 10:23:03;;;;;;;20.90;18.70;;;;;;;10.95;100.00;90945.06;5061590;28;20238;-80
2024/01/07 10:25:31;;;;;;;20.70;18.70;;;;;;;10.70;100.00;90933.00;5067155;28;20169;-75
2024/01/07 10:28:00;;;;;;;20.60;18.50;;;;;;;10.07;100.00;90909.81;5054729;28;20237;-75
2024/01/07 10:30:25;;;;;;;20.13;17.87;;;;;;;9.98;100.00;90927.31;5048260;28;20212;-76
2024/01/07 10:32:56;;;;;;;18.63;16.80;;;;;;;10.72;100.00;90920.38;5060748;28;20229;-79
2024/01/07 10:35:25;;;;;;;19.60;17.60;;;;;;;11.16;100.00;90935.34;5068128;28;20165;-78
2024/01/07 10:37:50;;;;;;;20.37;17.93;;;;;;;11.32;100.00;90927.66;5057357;28;20249;-77
2024/01/07 10:40:16;;;;;;;18.30;16.50;;;;;;;11.41;100.00;90930.19;5048657;28;20523;-77
2024/01/07 10:42:44;;;;;;;19.37;17.10;;;;;;;11.49;100.00;90911.06;5047934;28;20233;-77
2024/01/07 10:45:10;;;;;;;19.60;17.73;;;;;;;11.00;100.00;90903.06;5048870;28;20257;-76
2024/01/07 10:47:36;;;;;;;20.93;17.13;;;;;;;11.36;100.00;90916.22;5047765;28;20241;-78
2024/01/07 10:50:02;;;;;;;20.00;18.10;;;;;;;11.29;100.00;90907.41;5038808;28;20250;-77
2024/01/07 10:52:28;;;;;;;19.53;17.70;;;;;;;11.39;100.00;90918.19;5042583;28;20219;-76
2024/01/07 10:55:03;;;;;;;21.60;19.00;;;;;;;10.87;100.00;90921.63;5044873;28;20182;-76
2024/01/07 10:57:40;;;;;;;17.43;15.77;;;;;;;10.65;100.00;90909.69;5044173;28;20285;-76
2024/01/07 11:00:07;;;;;;;13.73;12.60;;;;;;;10.79;100.00;90914.63;5058628;28;20247;-76
2024/01/07 11:02:41;;;;;;;27.40;19.00;;;;;;;11.45;99.63;90907.53;5066681;28;20241;-76
2024/01/07 11:05:20;;;;;;;14.47;13.10;;;;;;;11.72;95.66;90904.34;5064561;28;20198;-76
2024/01/07 11:08:01;;;;;;;14.53;13.30;;;;;;;11.33;97.58;90909.03;5055211;28;20234;-77
2024/01/07 11:10:34;;;;;;;16.50;13.53;;;;;;;10.93;100.00;90913.28;5042295;28;20244;-79